sensor_id;sensor_type;location;lat;lon;timestamp;pressure;altitude;pressure_sealevel;temperature;humidity
63691;BME280;49837;57.280;27.070;2023-02-19T00:00:49;97551.69;;;-0.99;100.0
63691;BME280;49837;57.280;27.070;2023-02-19T00:01:50;97548.73;;;-0.96;100.0
63691;BME280;49837;57.280;27.070;2023-02-19T00:02:50;97555.85;;;-1.02;100.0
63691;BME280;49837;57.280;27.070;2023-02-19T00:03:52;97551.42;;;-0.99;100.0
63691;BME280;49837;57.280;27.070;2023-02-19T00:04:51;97548.2;;;-1.01;100.0
63691;BME280;49837;57.280;27.070;2023-02-19T00:05:51;97551.63;;;-0.98;100.0
63691;BME280;49837;57.280;27.070;2023-02-19T00:06:51;97548.69;;;-0.97;100.0
63691;BME280;49837;57.280;27.070;2023-02-19T00:07:52;97561.41;;;-0.95;100.0
63691;BME280;49837;57.280;27.070;2023-02-19T00:08:52;97553.27;;;-0.98;100.0
63691;BME280;49837;57.280;27.070;2023-02-19T00:09:52;97562.97;;;-0.96;100.0
63691;BME280;49837;57.280;27.070;2023-02-19T00:10:53;97561.08;;;-0.99;100.0
63691;BME280;49837;57.280;27.070;2023-02-19T00:11:53;97559.61;;;-0.99;100.0
63691;BME280;49837;57.280;27.070;2023-02-19T00:12:53;97555.84;;;-0.99;100.0
63691;BME280;49837;57.280;27.070;2023-02-19T00:13:55;97555.42;;;-0.99;100.0
63691;BME280;49837;57.280;27.070;2023-02-19T00:14:54;97563.22;;;-0.97;100.0
63691;BME280;49837;57.280;27.070;2023-02-19T00:15:54;97563.23;;;-1.0;100.0
63691;BME280;49837;57.280;27.070;2023-02-19T00:16:55;97564.19;;;-0.99;100.0
63691;BME280;49837;57.280;27.070;2023-02-19T00:17:55;97568.28;;;-0.95;100.0
63691;BME280;49837;57.280;27.070;2023-02-19T00:18:57;97572.15;;;-0.94;100.0
63691;BME280;49837;57.280;27.070;2023-02-19T00:19:56;97566.36;;;-0.97;100.0
63691;BME280;49837;57.280;27.070;2023-02-19T00:20:56;97568.98;;;-0.97;100.0
63691;BME280;49837;57.280;27.070;2023-02-19T00:21:56;97558.81;;;-0.96;100.0
63691;BME280;49837;57.280;27.070;2023-02-19T00:22:57;97572.38;;;-0.99;100.0
63691;BME280;49837;57.280;27.070;2023-02-19T00:23:59;97569.8;;;-0.98;100.0
63691;BME280;49837;57.280;27.070;2023-02-19T00:24:57;97566.65;;;-0.99;100.0
63691;BME280;49837;57.280;27.070;2023-02-19T00:26:05;97582.7;;;-1.0;100.0
63691;BME280;49837;57.280;27.070;2023-02-19T00:26:59;97569.15;;;-1.01;100.0
63691;BME280;49837;57.280;27.070;2023-02-19T00:28:00;97573.22;;;-1.0;100.0
63691;BME280;49837;57.280;27.070;2023-02-19T00:29:00;97572.91;;;-1.01;100.0
63691;BME280;49837;57.280;27.070;2023-02-19T00:30:00;97574.27;;;-0.99;100.0
63691;BME280;49837;57.280;27.070;2023-02-19T00:32:05;97580.03;;;-0.98;100.0
63691;BME280;49837;57.280;27.070;2023-02-19T00:33:05;97586.19;;;-0.98;100.0
63691;BME280;49837;57.280;27.070;2023-02-19T00:34:06;97577.88;;;-0.98;100.0
63691;BME280;49837;57.280;27.070;2023-02-19T00:35:06;97577.3;;;-0.97;100.0
63691;BME280;49837;57.280;27.070;2023-02-19T00:36:07;97577.41;;;-0.94;100.0
63691;BME280;49837;57.280;27.070;2023-02-19T00:37:07;97580.95;;;-0.95;100.0
63691;BME280;49837;57.280;27.070;2023-02-19T00:38:07;97584.2;;;-1.01;100.0
63691;BME280;49837;57.280;27.070;2023-02-19T00:39:10;97581.14;;;-0.99;100.0
63691;BME280;49837;57.280;27.070;2023-02-19T00:40:09;97586.96;;;-1.0;100.0
63691;BME280;49837;57.280;27.070;2023-02-19T00:41:10;97589.13;;;-0.98;100.0
63691;BME280;49837;57.280;27.070;2023-02-19T00:42:09;97593.88;;;-0.98;100.0
63691;BME280;49837;57.280;27.070;2023-02-19T00:43:10;97587.14;;;-0.97;100.0
63691;BME280;49837;57.280;27.070;2023-02-19T00:44:10;97579.78;;;-0.98;100.0
63691;BME280;49837;57.280;27.070;2023-02-19T00:45:10;97593.02;;;-1.0;100.0
63691;BME280;49837;57.280;27.070;2023-02-19T00:46:11;97597.34;;;-0.99;100.0
63691;BME280;49837;57.280;27.070;2023-02-19T00:47:11;97595.16;;;-1.01;100.0
63691;BME280;49837;57.280;27.070;2023-02-19T00:48:11;97598.58;;;-1.0;100.0
63691;BME280;49837;57.280;27.070;2023-02-19T00:50:13;97609.38;;;-1.0;100.0
63691;BME280;49837;57.280;27.070;2023-02-19T00:51:14;97591.94;;;-1.0;100.0
63691;BME280;49837;57.280;27.070;2023-02-19T00:52:14;97598.48;;;-1.0;100.0
63691;BME280;49837;57.280;27.070;2023-02-19T00:53:14;97605.59;;;-0.99;100.0
63691;BME280;49837;57.280;27.070;2023-02-19T00:54:15;97614.45;;;-1.0;100.0
63691;BME280;49837;57.280;27.070;2023-02-19T00:55:15;97605.34;;;-1.02;100.0
63691;BME280;49837;57.280;27.070;2023-02-19T00:56:15;97604.98;;;-1.01;100.0
63691;BME280;49837;57.280;27.070;2023-02-19T00:57:15;97604.95;;;-1.0;100.0
63691;BME280;49837;57.280;27.070;2023-02-19T00:58:16;97601.55;;;-1.01;100.0
63691;BME280;49837;57.280;27.070;2023-02-19T00:59:16;97603.78;;;-0.99;100.0
63691;BME280;49837;57.280;27.070;2023-02-19T01:00:17;97605.69;;;-0.99;100.0
63691;BME280;49837;57.280;27.070;2023-02-19T01:01:17;97607.46;;;-1.02;100.0
63691;BME280;49837;57.280;27.070;2023-02-19T01:02:17;97553.02;;;-1.01;100.0
63691;BME280;49837;57.280;27.070;2023-02-19T01:03:18;97610.45;;;-1.04;100.0
63691;BME280;49837;57.280;27.070;2023-02-19T01:04:18;97605.87;;;-1.01;100.0
63691;BME280;49837;57.280;27.070;2023-02-19T01:05:18;97614.34;;;-1.02;100.0
63691;BME280;49837;57.280;27.070;2023-02-19T01:06:19;97606.45;;;-1.01;100.0
63691;BME280;49837;57.280;27.070;2023-02-19T01:07:19;97608.3;;;-1.03;100.0
63691;BME280;49837;57.280;27.070;2023-02-19T01:08:19;97605.23;;;-1.02;100.0
63691;BME280;49837;57.280;27.070;2023-02-19T01:09:19;97596.17;;;-1.02;100.0
63691;BME280;49837;57.280;27.070;2023-02-19T01:10:20;97605.17;;;-1.02;100.0
63691;BME280;49837;57.280;27.070;2023-02-19T01:11:20;97614.66;;;-1.02;100.0
63691;BME280;49837;57.280;27.070;2023-02-19T01:12:20;97610.1;;;-1.03;100.0
63691;BME280;49837;57.280;27.070;2023-02-19T01:13:21;97621.44;;;-1.01;100.0
63691;BME280;49837;57.280;27.070;2023-02-19T01:14:21;97607.27;;;-1.01;100.0
63691;BME280;49837;57.280;27.070;2023-02-19T01:15:21;97614.24;;;-1.01;100.0
63691;BME280;49837;57.280;27.070;2023-02-19T01:16:22;97611.58;;;-1.03;100.0
63691;BME280;49837;57.280;27.070;2023-02-19T01:17:22;97616.62;;;-1.02;100.0
63691;BME280;49837;57.280;27.070;2023-02-19T01:18:22;97618.48;;;-0.98;100.0
63691;BME280;49837;57.280;27.070;2023-02-19T01:19:24;97617.48;;;-1.0;100.0
63691;BME280;49837;57.280;27.070;2023-02-19T01:20:23;97606.29;;;-1.01;100.0
63691;BME280;49837;57.280;27.070;2023-02-19T01:21:26;97609.59;;;-1.02;100.0
63691;BME280;49837;57.280;27.070;2023-02-19T01:22:24;97612.6;;;-1.02;100.0
63691;BME280;49837;57.280;27.070;2023-02-19T01:23:25;97618.28;;;-1.0;100.0
63691;BME280;49837;57.280;27.070;2023-02-19T01:24:24;97621.55;;;-1.0;100.0
63691;BME280;49837;57.280;27.070;2023-02-19T01:25:25;97617.3;;;-1.03;100.0
63691;BME280;49837;57.280;27.070;2023-02-19T01:26:30;97625.97;;;-0.99;100.0
63691;BME280;49837;57.280;27.070;2023-02-19T01:27:28;97626.26;;;-1.01;100.0
63691;BME280;49837;57.280;27.070;2023-02-19T01:28:28;97626.44;;;-1.02;100.0
63691;BME280;49837;57.280;27.070;2023-02-19T01:29:28;97630.38;;;-1.02;100.0
63691;BME280;49837;57.280;27.070;2023-02-19T01:30:29;97630.14;;;-1.02;100.0
63691;BME280;49837;57.280;27.070;2023-02-19T01:31:29;97625.95;;;-1.02;100.0
63691;BME280;49837;57.280;27.070;2023-02-19T01:32:29;97630.27;;;-1.02;100.0
63691;BME280;49837;57.280;27.070;2023-02-19T01:33:30;97632.89;;;-1.02;100.0
63691;BME280;49837;57.280;27.070;2023-02-19T01:34:30;97635.7;;;-1.02;100.0
63691;BME280;49837;57.280;27.070;2023-02-19T01:35:30;97631.86;;;-1.03;100.0
63691;BME280;49837;57.280;27.070;2023-02-19T01:36:32;97629.09;;;-1.03;100.0
63691;BME280;49837;57.280;27.070;2023-02-19T01:37:31;97647.09;;;-1.03;100.0
63691;BME280;49837;57.280;27.070;2023-02-19T01:38:31;97659.14;;;-1.08;100.0
63691;BME280;49837;57.280;27.070;2023-02-19T01:39:32;97645.64;;;-1.08;100.0
63691;BME280;49837;57.280;27.070;2023-02-19T01:40:32;97645.8;;;-1.04;100.0
63691;BME280;49837;57.280;27.070;2023-02-19T01:41:37;97642.94;;;-1.05;100.0
63691;BME280;49837;57.280;27.070;2023-02-19T01:42:34;97643.2;;;-1.09;100.0
63691;BME280;49837;57.280;27.070;2023-02-19T01:45:38;97643.64;;;-1.07;100.0
63691;BME280;49837;57.280;27.070;2023-02-19T01:46:40;97641.8;;;-1.05;100.0
63691;BME280;49837;57.280;27.070;2023-02-19T01:47:39;97641.76;;;-1.06;100.0
63691;BME280;49837;57.280;27.070;2023-02-19T01:48:40;97645.78;;;-1.03;100.0
63691;BME280;49837;57.280;27.070;2023-02-19T01:50:46;97642.94;;;-1.05;100.0
63691;BME280;49837;57.280;27.070;2023-02-19T01:51:50;97648.48;;;-1.04;100.0
63691;BME280;49837;57.280;27.070;2023-02-19T01:52:49;97649.28;;;-1.06;100.0
63691;BME280;49837;57.280;27.070;2023-02-19T01:53:54;97645.03;;;-1.06;100.0
63691;BME280;49837;57.280;27.070;2023-02-19T01:54:54;97648.55;;;-1.07;100.0
63691;BME280;49837;57.280;27.070;2023-02-19T01:55:55;97645.2;;;-1.04;100.0
63691;BME280;49837;57.280;27.070;2023-02-19T01:56:54;97652.7;;;-1.05;100.0
63691;BME280;49837;57.280;27.070;2023-02-19T01:57:55;97647.92;;;-1.08;100.0
63691;BME280;49837;57.280;27.070;2023-02-19T01:58:55;97650.09;;;-1.06;100.0
63691;BME280;49837;57.280;27.070;2023-02-19T02:00:01;97655.56;;;-1.06;100.0
63691;BME280;49837;57.280;27.070;2023-02-19T02:01:02;97650.08;;;-1.09;100.0
63691;BME280;49837;57.280;27.070;2023-02-19T02:02:01;97656.55;;;-1.09;100.0
63691;BME280;49837;57.280;27.070;2023-02-19T02:03:01;97650.87;;;-1.08;100.0
63691;BME280;49837;57.280;27.070;2023-02-19T02:04:02;97648.25;;;-1.12;100.0
63691;BME280;49837;57.280;27.070;2023-02-19T02:05:02;97657.41;;;-1.11;100.0
63691;BME280;49837;57.280;27.070;2023-02-19T02:06:21;97651.11;;;-1.1;100.0
63691;BME280;49837;57.280;27.070;2023-02-19T02:07:05;97653.39;;;-1.1;100.0
63691;BME280;49837;57.280;27.070;2023-02-19T02:08:04;97654.54;;;-1.1;100.0
63691;BME280;49837;57.280;27.070;2023-02-19T02:09:05;97653.37;;;-1.17;100.0
63691;BME280;49837;57.280;27.070;2023-02-19T02:10:05;97650.8;;;-1.12;100.0
63691;BME280;49837;57.280;27.070;2023-02-19T02:11:05;97652.83;;;-1.14;100.0
63691;BME280;49837;57.280;27.070;2023-02-19T02:12:06;97669.5;;;-1.13;100.0
63691;BME280;49837;57.280;27.070;2023-02-19T02:13:06;97658.86;;;-1.14;100.0
63691;BME280;49837;57.280;27.070;2023-02-19T02:14:06;97654.72;;;-1.16;100.0
63691;BME280;49837;57.280;27.070;2023-02-19T02:15:07;97661.08;;;-1.14;100.0
63691;BME280;49837;57.280;27.070;2023-02-19T02:18:30;97659.96;;;-1.18;100.0
63691;BME280;49837;57.280;27.070;2023-02-19T02:30:45;97670.23;;;-1.21;100.0
63691;BME280;49837;57.280;27.070;2023-02-19T02:31:48;97674.67;;;-1.22;100.0
63691;BME280;49837;57.280;27.070;2023-02-19T02:34:08;97672.8;;;-1.2;100.0
63691;BME280;49837;57.280;27.070;2023-02-19T02:34:58;97675.84;;;-1.2;100.0
63691;BME280;49837;57.280;27.070;2023-02-19T02:36:02;97677.83;;;-1.18;100.0
63691;BME280;49837;57.280;27.070;2023-02-19T02:37:02;97680.7;;;-1.21;100.0
63691;BME280;49837;57.280;27.070;2023-02-19T02:38:06;97675.52;;;-1.23;100.0
63691;BME280;49837;57.280;27.070;2023-02-19T02:39:05;97672.85;;;-1.25;100.0
63691;BME280;49837;57.280;27.070;2023-02-19T02:40:06;97681.66;;;-1.24;100.0
63691;BME280;49837;57.280;27.070;2023-02-19T02:41:05;97689.33;;;-1.23;100.0
63691;BME280;49837;57.280;27.070;2023-02-19T02:42:05;97685.91;;;-1.24;100.0
63691;BME280;49837;57.280;27.070;2023-02-19T02:43:05;97674.47;;;-1.24;100.0
63691;BME280;49837;57.280;27.070;2023-02-19T02:44:06;97685.97;;;-1.22;100.0
63691;BME280;49837;57.280;27.070;2023-02-19T02:46:11;97686.61;;;-1.26;100.0
63691;BME280;49837;57.280;27.070;2023-02-19T02:47:10;97690.94;;;-1.25;100.0
63691;BME280;49837;57.280;27.070;2023-02-19T02:48:29;97691.39;;;-1.23;100.0
63691;BME280;49837;57.280;27.070;2023-02-19T02:50:26;97696.65;;;-1.21;100.0
63691;BME280;49837;57.280;27.070;2023-02-19T02:52:22;97691.94;;;-1.23;100.0
63691;BME280;49837;57.280;27.070;2023-02-19T02:53:34;97699.34;;;-1.25;100.0
63691;BME280;49837;57.280;27.070;2023-02-19T02:54:27;97690.94;;;-1.25;100.0
63691;BME280;49837;57.280;27.070;2023-02-19T02:55:29;97694.85;;;-1.29;100.0
63691;BME280;49837;57.280;27.070;2023-02-19T02:56:28;97696.75;;;-1.32;100.0
63691;BME280;49837;57.280;27.070;2023-02-19T02:57:28;97692.38;;;-1.28;100.0
63691;BME280;49837;57.280;27.070;2023-02-19T02:58:28;97704.88;;;-1.31;100.0
63691;BME280;49837;57.280;27.070;2023-02-19T02:59:32;97706.77;;;-1.31;100.0
63691;BME280;49837;57.280;27.070;2023-02-19T03:00:32;97694.65;;;-1.3;100.0
63691;BME280;49837;57.280;27.070;2023-02-19T03:01:38;97700.62;;;-1.28;100.0
63691;BME280;49837;57.280;27.070;2023-02-19T03:02:33;97698.12;;;-1.29;100.0
63691;BME280;49837;57.280;27.070;2023-02-19T03:03:34;97698.12;;;-1.29;100.0
63691;BME280;49837;57.280;27.070;2023-02-19T03:05:35;97699.06;;;-1.27;100.0
63691;BME280;49837;57.280;27.070;2023-02-19T03:06:36;97705.59;;;-1.33;100.0
63691;BME280;49837;57.280;27.070;2023-02-19T03:07:38;97716.06;;;-1.33;100.0
63691;BME280;49837;57.280;27.070;2023-02-19T03:09:41;97707.81;;;-1.34;100.0
63691;BME280;49837;57.280;27.070;2023-02-19T03:11:48;97709.77;;;-1.3;100.0
63691;BME280;49837;57.280;27.070;2023-02-19T03:12:49;97713.98;;;-1.29;100.0
63691;BME280;49837;57.280;27.070;2023-02-19T03:13:50;97714.19;;;-1.34;100.0
63691;BME280;49837;57.280;27.070;2023-02-19T03:14:52;97715.33;;;-1.38;100.0
63691;BME280;49837;57.280;27.070;2023-02-19T03:15:59;97720.98;;;-1.38;100.0
63691;BME280;49837;57.280;27.070;2023-02-19T03:16:58;97713.41;;;-1.37;100.0
63691;BME280;49837;57.280;27.070;2023-02-19T03:18:01;97717.12;;;-1.38;100.0
63691;BME280;49837;57.280;27.070;2023-02-19T03:19:00;97718.81;;;-1.36;100.0
63691;BME280;49837;57.280;27.070;2023-02-19T03:20:04;97714.98;;;-1.37;100.0
63691;BME280;49837;57.280;27.070;2023-02-19T03:21:03;97707.48;;;-1.38;100.0
63691;BME280;49837;57.280;27.070;2023-02-19T03:22:13;97722.59;;;-1.37;100.0
63691;BME280;49837;57.280;27.070;2023-02-19T03:23:08;97729.7;;;-1.37;100.0
63691;BME280;49837;57.280;27.070;2023-02-19T03:24:09;97713.12;;;-1.39;100.0
63691;BME280;49837;57.280;27.070;2023-02-19T03:25:17;97716.7;;;-1.41;100.0
63691;BME280;49837;57.280;27.070;2023-02-19T03:26:11;97719.59;;;-1.43;100.0
63691;BME280;49837;57.280;27.070;2023-02-19T03:27:12;97720.67;;;-1.43;100.0
63691;BME280;49837;57.280;27.070;2023-02-19T03:28:13;97720.38;;;-1.45;100.0
63691;BME280;49837;57.280;27.070;2023-02-19T03:29:13;97723.35;;;-1.43;100.0
63691;BME280;49837;57.280;27.070;2023-02-19T03:30:18;97736.64;;;-1.45;100.0
63691;BME280;49837;57.280;27.070;2023-02-19T03:31:20;97721.97;;;-1.47;100.0
63691;BME280;49837;57.280;27.070;2023-02-19T03:32:24;97729.28;;;-1.44;100.0
63691;BME280;49837;57.280;27.070;2023-02-19T03:33:25;97725.05;;;-1.45;100.0
63691;BME280;49837;57.280;27.070;2023-02-19T03:34:29;97730.19;;;-1.45;100.0
63691;BME280;49837;57.280;27.070;2023-02-19T03:35:30;97723.82;;;-1.42;100.0
63691;BME280;49837;57.280;27.070;2023-02-19T03:37:41;97734.74;;;-1.47;100.0
63691;BME280;49837;57.280;27.070;2023-02-19T03:39:38;97734.66;;;-1.52;100.0
63691;BME280;49837;57.280;27.070;2023-02-19T03:40:49;97733.58;;;-1.46;100.0
63691;BME280;49837;57.280;27.070;2023-02-19T03:41:56;97738.09;;;-1.47;100.0
63691;BME280;49837;57.280;27.070;2023-02-19T03:55:17;97746.3;;;-1.49;100.0
63691;BME280;49837;57.280;27.070;2023-02-19T03:56:24;97748.75;;;-1.54;100.0
63691;BME280;49837;57.280;27.070;2023-02-19T03:57:30;97747.83;;;-1.57;100.0
63691;BME280;49837;57.280;27.070;2023-02-19T04:03:40;97735.34;;;-1.52;100.0
63691;BME280;49837;57.280;27.070;2023-02-19T04:04:44;97752.36;;;-1.51;100.0
63691;BME280;49837;57.280;27.070;2023-02-19T04:05:40;97762.85;;;-1.51;100.0
63691;BME280;49837;57.280;27.070;2023-02-19T04:06:41;97765.46;;;-1.52;100.0
63691;BME280;49837;57.280;27.070;2023-02-19T04:07:44;97767.72;;;-1.54;100.0
63691;BME280;49837;57.280;27.070;2023-02-19T04:08:47;97756.91;;;-1.56;100.0
63691;BME280;49837;57.280;27.070;2023-02-19T04:09:48;97768.48;;;-1.5;100.0
63691;BME280;49837;57.280;27.070;2023-02-19T04:10:48;97763.45;;;-1.48;100.0
63691;BME280;49837;57.280;27.070;2023-02-19T04:11:49;97759.77;;;-1.52;100.0
63691;BME280;49837;57.280;27.070;2023-02-19T04:12:53;97761.62;;;-1.55;100.0
63691;BME280;49837;57.280;27.070;2023-02-19T04:14:09;97771.55;;;-1.53;100.0
63691;BME280;49837;57.280;27.070;2023-02-19T04:16:02;97761.45;;;-1.5;100.0
63691;BME280;49837;57.280;27.070;2023-02-19T04:17:07;97770.0;;;-1.5;100.0
63691;BME280;49837;57.280;27.070;2023-02-19T04:18:09;97760.4;;;-1.51;100.0
63691;BME280;49837;57.280;27.070;2023-02-19T04:19:11;97755.07;;;-1.46;100.0
63691;BME280;49837;57.280;27.070;2023-02-19T04:20:11;97758.12;;;-1.43;100.0
63691;BME280;49837;57.280;27.070;2023-02-19T04:21:10;97755.48;;;-1.47;100.0
63691;BME280;49837;57.280;27.070;2023-02-19T04:22:11;97765.43;;;-1.49;100.0
63691;BME280;49837;57.280;27.070;2023-02-19T04:25:18;97759.32;;;-1.46;100.0
63691;BME280;49837;57.280;27.070;2023-02-19T04:26:20;97757.45;;;-1.47;100.0
63691;BME280;49837;57.280;27.070;2023-02-19T04:27:18;97761.92;;;-1.49;100.0
63691;BME280;49837;57.280;27.070;2023-02-19T04:28:19;97759.73;;;-1.5;100.0
63691;BME280;49837;57.280;27.070;2023-02-19T04:29:19;97770.34;;;-1.51;100.0
63691;BME280;49837;57.280;27.070;2023-02-19T04:30:20;97756.55;;;-1.5;100.0
63691;BME280;49837;57.280;27.070;2023-02-19T04:31:20;97758.83;;;-1.46;100.0
63691;BME280;49837;57.280;27.070;2023-02-19T04:32:20;97770.39;;;-1.53;100.0
63691;BME280;49837;57.280;27.070;2023-02-19T04:33:21;97761.61;;;-1.51;100.0
63691;BME280;49837;57.280;27.070;2023-02-19T04:34:21;97774.73;;;-1.53;100.0
63691;BME280;49837;57.280;27.070;2023-02-19T04:35:21;97769.2;;;-1.53;100.0
63691;BME280;49837;57.280;27.070;2023-02-19T04:36:22;97768.36;;;-1.53;100.0
63691;BME280;49837;57.280;27.070;2023-02-19T04:37:22;97768.36;;;-1.52;100.0
63691;BME280;49837;57.280;27.070;2023-02-19T04:38:22;97758.12;;;-1.53;100.0
63691;BME280;49837;57.280;27.070;2023-02-19T04:39:22;97771.23;;;-1.53;100.0
63691;BME280;49837;57.280;27.070;2023-02-19T04:40:23;97778.64;;;-1.52;100.0
63691;BME280;49837;57.280;27.070;2023-02-19T04:41:23;97766.28;;;-1.51;100.0
63691;BME280;49837;57.280;27.070;2023-02-19T04:42:23;97769.12;;;-1.54;100.0
63691;BME280;49837;57.280;27.070;2023-02-19T04:43:24;97764.22;;;-1.54;100.0
63691;BME280;49837;57.280;27.070;2023-02-19T04:44:24;97767.77;;;-1.53;100.0
63691;BME280;49837;57.280;27.070;2023-02-19T04:45:25;97770.95;;;-1.55;100.0
63691;BME280;49837;57.280;27.070;2023-02-19T04:46:25;97770.75;;;-1.58;100.0
63691;BME280;49837;57.280;27.070;2023-02-19T04:47:25;97768.78;;;-1.53;100.0
63691;BME280;49837;57.280;27.070;2023-02-19T04:48:25;97768.4;;;-1.54;100.0
63691;BME280;49837;57.280;27.070;2023-02-19T04:49:26;97771.81;;;-1.54;100.0
63691;BME280;49837;57.280;27.070;2023-02-19T04:50:26;97767.91;;;-1.59;100.0
63691;BME280;49837;57.280;27.070;2023-02-19T04:51:27;97774.83;;;-1.58;100.0
63691;BME280;49837;57.280;27.070;2023-02-19T04:52:27;97771.33;;;-1.58;100.0
63691;BME280;49837;57.280;27.070;2023-02-19T04:53:27;97781.84;;;-1.61;100.0
63691;BME280;49837;57.280;27.070;2023-02-19T04:54:27;97775.69;;;-1.65;100.0
63691;BME280;49837;57.280;27.070;2023-02-19T04:55:28;97778.95;;;-1.6;100.0
63691;BME280;49837;57.280;27.070;2023-02-19T04:56:28;97775.09;;;-1.63;100.0
63691;BME280;49837;57.280;27.070;2023-02-19T04:57:28;97777.93;;;-1.61;100.0
63691;BME280;49837;57.280;27.070;2023-02-19T04:58:30;97781.69;;;-1.61;100.0
63691;BME280;49837;57.280;27.070;2023-02-19T04:59:29;97779.45;;;-1.64;100.0
63691;BME280;49837;57.280;27.070;2023-02-19T05:00:30;97774.94;;;-1.67;100.0
63691;BME280;49837;57.280;27.070;2023-02-19T05:01:30;97781.09;;;-1.65;100.0
63691;BME280;49837;57.280;27.070;2023-02-19T05:02:30;97776.09;;;-1.64;100.0
63691;BME280;49837;57.280;27.070;2023-02-19T05:03:31;97777.66;;;-1.68;100.0
63691;BME280;49837;57.280;27.070;2023-02-19T05:04:31;97786.3;;;-1.67;100.0
63691;BME280;49837;57.280;27.070;2023-02-19T05:05:31;97789.27;;;-1.69;100.0
63691;BME280;49837;57.280;27.070;2023-02-19T05:06:31;97782.51;;;-1.7;100.0
63691;BME280;49837;57.280;27.070;2023-02-19T05:07:32;97779.52;;;-1.69;100.0
63691;BME280;49837;57.280;27.070;2023-02-19T05:08:32;97782.83;;;-1.71;100.0
63691;BME280;49837;57.280;27.070;2023-02-19T05:09:32;97783.38;;;-1.69;100.0
63691;BME280;49837;57.280;27.070;2023-02-19T05:10:33;97789.2;;;-1.66;100.0
63691;BME280;49837;57.280;27.070;2023-02-19T05:11:33;97789.87;;;-1.65;100.0
63691;BME280;49837;57.280;27.070;2023-02-19T05:12:33;97795.45;;;-1.72;100.0
63691;BME280;49837;57.280;27.070;2023-02-19T05:13:34;97790.77;;;-1.71;100.0
63691;BME280;49837;57.280;27.070;2023-02-19T05:14:34;97799.49;;;-1.74;100.0
63691;BME280;49837;57.280;27.070;2023-02-19T05:15:34;97795.95;;;-1.77;100.0
63691;BME280;49837;57.280;27.070;2023-02-19T05:16:35;97795.13;;;-1.72;100.0
63691;BME280;49837;57.280;27.070;2023-02-19T05:17:35;97802.29;;;-1.75;100.0
63691;BME280;49837;57.280;27.070;2023-02-19T05:18:35;97801.91;;;-1.76;100.0
63691;BME280;49837;57.280;27.070;2023-02-19T05:19:36;97801.6;;;-1.77;100.0
63691;BME280;49837;57.280;27.070;2023-02-19T05:20:36;97810.61;;;-1.74;100.0
63691;BME280;49837;57.280;27.070;2023-02-19T05:21:36;97803.21;;;-1.76;100.0
63691;BME280;49837;57.280;27.070;2023-02-19T05:22:37;97797.86;;;-1.74;100.0
63691;BME280;49837;57.280;27.070;2023-02-19T05:23:37;97809.06;;;-1.79;100.0
63691;BME280;49837;57.280;27.070;2023-02-19T05:24:37;97785.64;;;-1.8;100.0
63691;BME280;49837;57.280;27.070;2023-02-19T05:25:38;97806.47;;;-1.8;100.0
63691;BME280;49837;57.280;27.070;2023-02-19T05:26:38;97800.09;;;-1.8;100.0
63691;BME280;49837;57.280;27.070;2023-02-19T05:27:38;97806.5;;;-1.82;100.0
63691;BME280;49837;57.280;27.070;2023-02-19T05:28:39;97809.94;;;-1.82;100.0
63691;BME280;49837;57.280;27.070;2023-02-19T05:29:39;97806.16;;;-1.81;100.0
63691;BME280;49837;57.280;27.070;2023-02-19T05:30:39;97796.05;;;-1.83;100.0
63691;BME280;49837;57.280;27.070;2023-02-19T05:31:40;97802.56;;;-1.76;100.0
63691;BME280;49837;57.280;27.070;2023-02-19T05:32:40;97795.73;;;-1.79;100.0
63691;BME280;49837;57.280;27.070;2023-02-19T05:33:40;97808.46;;;-1.77;100.0
63691;BME280;49837;57.280;27.070;2023-02-19T05:34:41;97808.02;;;-1.81;100.0
63691;BME280;49837;57.280;27.070;2023-02-19T05:35:46;97814.73;;;-1.76;100.0
63691;BME280;49837;57.280;27.070;2023-02-19T05:36:43;97809.64;;;-1.79;100.0
63691;BME280;49837;57.280;27.070;2023-02-19T05:37:44;97807.73;;;-1.78;100.0
63691;BME280;49837;57.280;27.070;2023-02-19T05:38:44;97803.23;;;-1.77;100.0
63691;BME280;49837;57.280;27.070;2023-02-19T05:39:44;97812.75;;;-1.7;100.0
63691;BME280;49837;57.280;27.070;2023-02-19T05:40:45;97813.62;;;-1.73;100.0
63691;BME280;49837;57.280;27.070;2023-02-19T05:41:45;97813.69;;;-1.77;100.0
63691;BME280;49837;57.280;27.070;2023-02-19T05:42:45;97814.84;;;-1.77;100.0
63691;BME280;49837;57.280;27.070;2023-02-19T05:43:47;97815.58;;;-1.78;100.0
63691;BME280;49837;57.280;27.070;2023-02-19T05:44:46;97819.67;;;-1.78;100.0
63691;BME280;49837;57.280;27.070;2023-02-19T05:45:46;97810.97;;;-1.76;100.0
63691;BME280;49837;57.280;27.070;2023-02-19T05:46:47;97818.95;;;-1.75;100.0
63691;BME280;49837;57.280;27.070;2023-02-19T05:47:47;97814.64;;;-1.7;100.0
63691;BME280;49837;57.280;27.070;2023-02-19T05:48:49;97809.61;;;-1.68;100.0
63691;BME280;49837;57.280;27.070;2023-02-19T05:49:48;97816.88;;;-1.67;100.0
63691;BME280;49837;57.280;27.070;2023-02-19T05:50:48;97817.42;;;-1.7;100.0
63691;BME280;49837;57.280;27.070;2023-02-19T05:51:51;97818.8;;;-1.7;100.0
63691;BME280;49837;57.280;27.070;2023-02-19T05:52:49;97819.38;;;-1.7;100.0
63691;BME280;49837;57.280;27.070;2023-02-19T05:53:49;97818.36;;;-1.74;100.0
63691;BME280;49837;57.280;27.070;2023-02-19T05:54:49;97824.66;;;-1.74;100.0
63691;BME280;49837;57.280;27.070;2023-02-19T05:55:50;97820.25;;;-1.78;100.0
63691;BME280;49837;57.280;27.070;2023-02-19T05:56:50;97833.36;;;-1.8;100.0
63691;BME280;49837;57.280;27.070;2023-02-19T05:57:50;97817.83;;;-1.81;100.0
63691;BME280;49837;57.280;27.070;2023-02-19T05:58:51;97832.05;;;-1.76;100.0
63691;BME280;49837;57.280;27.070;2023-02-19T05:59:51;97827.95;;;-1.75;100.0
63691;BME280;49837;57.280;27.070;2023-02-19T06:00:51;97835.05;;;-1.74;100.0
63691;BME280;49837;57.280;27.070;2023-02-19T06:01:53;97830.7;;;-1.77;100.0
63691;BME280;49837;57.280;27.070;2023-02-19T06:02:53;97829.38;;;-1.77;100.0
63691;BME280;49837;57.280;27.070;2023-02-19T06:03:52;97827.23;;;-1.76;100.0
63691;BME280;49837;57.280;27.070;2023-02-19T06:04:53;97837.03;;;-1.81;100.0
63691;BME280;49837;57.280;27.070;2023-02-19T06:05:54;97839.62;;;-1.83;100.0
63691;BME280;49837;57.280;27.070;2023-02-19T06:06:54;97835.34;;;-1.81;100.0
63691;BME280;49837;57.280;27.070;2023-02-19T06:07:54;97845.73;;;-1.88;100.0